sensor_id;sensor_type;location;lat;lon;timestamp;temperature;humidity
47546;DHT22;50104;52.002;4.688;2022-10-16T00:02:17;14.40;84.60
47546;DHT22;50104;52.002;4.688;2022-10-16T00:07:18;14.40;84.60
47546;DHT22;50104;52.002;4.688;2022-10-16T00:12:19;14.40;84.60
47546;DHT22;50104;52.002;4.688;2022-10-16T00:17:21;14.30;84.60
47546;DHT22;50104;52.002;4.688;2022-10-16T00:22:22;14.30;84.60
47546;DHT22;50104;52.002;4.688;2022-10-16T00:27:23;14.40;84.60
47546;DHT22;50104;52.002;4.688;2022-10-16T00:32:24;14.40;84.60
47546;DHT22;50104;52.002;4.688;2022-10-16T00:37:25;14.40;84.60
47546;DHT22;50104;52.002;4.688;2022-10-16T00:42:26;14.40;84.60
47546;DHT22;50104;52.002;4.688;2022-10-16T00:47:37;14.40;84.80
47546;DHT22;50104;52.002;4.688;2022-10-16T00:52:44;14.40;84.90
47546;DHT22;50104;52.002;4.688;2022-10-16T00:57:48;14.40;84.90
47546;DHT22;50104;52.002;4.688;2022-10-16T01:02:57;14.30;85.00
47546;DHT22;50104;52.002;4.688;2022-10-16T01:08:13;14.30;85.10
47546;DHT22;50104;52.002;4.688;2022-10-16T01:13:21;14.30;85.30
47546;DHT22;50104;52.002;4.688;2022-10-16T01:24:03;14.30;85.50
47546;DHT22;50104;52.002;4.688;2022-10-16T01:29:49;14.30;85.70
47546;DHT22;50104;52.002;4.688;2022-10-16T01:36:00;14.30;85.80
47546;DHT22;50104;52.002;4.688;2022-10-16T01:41:06;14.30;85.90
47546;DHT22;50104;52.002;4.688;2022-10-16T01:46:10;14.30;86.00
47546;DHT22;50104;52.002;4.688;2022-10-16T01:51:14;14.30;85.90
47546;DHT22;50104;52.002;4.688;2022-10-16T01:56:17;14.30;85.80
47546;DHT22;50104;52.002;4.688;2022-10-16T02:01:20;14.20;85.70
47546;DHT22;50104;52.002;4.688;2022-10-16T02:06:22;14.20;85.50
47546;DHT22;50104;52.002;4.688;2022-10-16T02:11:24;14.20;85.50
47546;DHT22;50104;52.002;4.688;2022-10-16T02:16:42;14.10;85.50
47546;DHT22;50104;52.002;4.688;2022-10-16T02:21:50;14.10;85.70
47546;DHT22;50104;52.002;4.688;2022-10-16T02:27:00;14.00;85.80
47546;DHT22;50104;52.002;4.688;2022-10-16T02:32:04;14.00;85.90
47546;DHT22;50104;52.002;4.688;2022-10-16T02:37:07;14.00;86.00
47546;DHT22;50104;52.002;4.688;2022-10-16T02:42:14;14.00;86.10
47546;DHT22;50104;52.002;4.688;2022-10-16T02:47:15;14.00;86.20
47546;DHT22;50104;52.002;4.688;2022-10-16T02:52:16;14.00;86.40
47546;DHT22;50104;52.002;4.688;2022-10-16T02:57:17;13.90;86.40
47546;DHT22;50104;52.002;4.688;2022-10-16T03:02:18;13.90;86.50
47546;DHT22;50104;52.002;4.688;2022-10-16T03:07:19;13.90;86.60
47546;DHT22;50104;52.002;4.688;2022-10-16T03:12:20;13.90;86.50
47546;DHT22;50104;52.002;4.688;2022-10-16T03:17:21;13.90;86.40
47546;DHT22;50104;52.002;4.688;2022-10-16T03:22:22;13.90;86.40
47546;DHT22;50104;52.002;4.688;2022-10-16T03:27:22;13.80;86.50
47546;DHT22;50104;52.002;4.688;2022-10-16T03:32:23;13.80;86.70
47546;DHT22;50104;52.002;4.688;2022-10-16T03:37:26;13.80;86.80
47546;DHT22;50104;52.002;4.688;2022-10-16T03:42:26;13.80;86.90
47546;DHT22;50104;52.002;4.688;2022-10-16T03:47:28;13.80;87.00
47546;DHT22;50104;52.002;4.688;2022-10-16T03:52:29;13.80;87.00
47546;DHT22;50104;52.002;4.688;2022-10-16T03:57:29;13.80;87.10
47546;DHT22;50104;52.002;4.688;2022-10-16T04:02:30;13.80;87.10
47546;DHT22;50104;52.002;4.688;2022-10-16T04:07:31;13.80;87.20
47546;DHT22;50104;52.002;4.688;2022-10-16T04:12:32;13.80;87.20
47546;DHT22;50104;52.002;4.688;2022-10-16T04:17:32;13.80;87.10
47546;DHT22;50104;52.002;4.688;2022-10-16T04:22:33;13.80;87.00
47546;DHT22;50104;52.002;4.688;2022-10-16T04:27:34;13.80;86.90
47546;DHT22;50104;52.002;4.688;2022-10-16T04:32:35;13.80;86.70
47546;DHT22;50104;52.002;4.688;2022-10-16T04:37:35;13.70;86.70
47546;DHT22;50104;52.002;4.688;2022-10-16T04:42:36;13.70;86.80
47546;DHT22;50104;52.002;4.688;2022-10-16T04:47:37;13.70;87.00
47546;DHT22;50104;52.002;4.688;2022-10-16T04:52:38;13.70;87.20
47546;DHT22;50104;52.002;4.688;2022-10-16T04:57:39;13.70;87.40
47546;DHT22;50104;52.002;4.688;2022-10-16T05:02:41;13.60;87.60
47546;DHT22;50104;52.002;4.688;2022-10-16T05:07:42;13.60;87.90
47546;DHT22;50104;52.002;4.688;2022-10-16T05:12:43;13.70;88.10
47546;DHT22;50104;52.002;4.688;2022-10-16T05:17:44;13.70;88.10
47546;DHT22;50104;52.002;4.688;2022-10-16T05:22:45;13.70;88.10
47546;DHT22;50104;52.002;4.688;2022-10-16T05:27:49;13.70;88.10
47546;DHT22;50104;52.002;4.688;2022-10-16T05:32:51;13.70;88.00
47546;DHT22;50104;52.002;4.688;2022-10-16T05:37:54;13.80;88.20
47546;DHT22;50104;52.002;4.688;2022-10-16T05:42:55;13.80;88.20
47546;DHT22;50104;52.002;4.688;2022-10-16T05:47:56;13.80;88.30
47546;DHT22;50104;52.002;4.688;2022-10-16T05:52:57;13.80;88.30
47546;DHT22;50104;52.002;4.688;2022-10-16T05:57:58;13.80;88.30
47546;DHT22;50104;52.002;4.688;2022-10-16T06:02:58;13.90;88.20
47546;DHT22;50104;52.002;4.688;2022-10-16T06:07:59;13.90;88.20
47546;DHT22;50104;52.002;4.688;2022-10-16T06:13:00;13.90;88.30
47546;DHT22;50104;52.002;4.688;2022-10-16T06:18:01;13.90;88.30
47546;DHT22;50104;52.002;4.688;2022-10-16T06:23:02;13.90;88.40
47546;DHT22;50104;52.002;4.688;2022-10-16T06:28:04;13.90;88.40
47546;DHT22;50104;52.002;4.688;2022-10-16T06:33:06;13.90;88.50
47546;DHT22;50104;52.002;4.688;2022-10-16T06:38:07;13.90;88.40
47546;DHT22;50104;52.002;4.688;2022-10-16T06:43:07;13.90;88.20
47546;DHT22;50104;52.002;4.688;2022-10-16T06:48:08;14.00;87.90
47546;DHT22;50104;52.002;4.688;2022-10-16T06:53:09;13.90;87.70
47546;DHT22;50104;52.002;4.688;2022-10-16T06:58:10;14.00;87.60
47546;DHT22;50104;52.002;4.688;2022-10-16T07:03:10;14.00;87.60
47546;DHT22;50104;52.002;4.688;2022-10-16T07:08:11;14.00;87.70
47546;DHT22;50104;52.002;4.688;2022-10-16T07:13:12;14.00;87.70
47546;DHT22;50104;52.002;4.688;2022-10-16T07:18:14;14.00;87.80
47546;DHT22;50104;52.002;4.688;2022-10-16T07:23:15;14.00;87.80
47546;DHT22;50104;52.002;4.688;2022-10-16T07:28:16;14.00;87.80
47546;DHT22;50104;52.002;4.688;2022-10-16T07:33:17;14.00;87.80
47546;DHT22;50104;52.002;4.688;2022-10-16T07:38:24;14.00;87.80
47546;DHT22;50104;52.002;4.688;2022-10-16T07:43:26;14.00;88.00
47546;DHT22;50104;52.002;4.688;2022-10-16T07:48:29;14.10;88.10
47546;DHT22;50104;52.002;4.688;2022-10-16T07:53:32;14.10;88.50
47546;DHT22;50104;52.002;4.688;2022-10-16T07:58:34;14.20;88.70
47546;DHT22;50104;52.002;4.688;2022-10-16T08:03:37;14.20;88.90
47546;DHT22;50104;52.002;4.688;2022-10-16T08:08:38;14.30;89.00
47546;DHT22;50104;52.002;4.688;2022-10-16T08:13:39;14.40;89.10
47546;DHT22;50104;52.002;4.688;2022-10-16T08:18:40;14.40;89.20
47546;DHT22;50104;52.002;4.688;2022-10-16T08:23:41;14.50;89.20
47546;DHT22;50104;52.002;4.688;2022-10-16T08:28:43;14.60;89.40
47546;DHT22;50104;52.002;4.688;2022-10-16T08:33:45;14.70;89.30
47546;DHT22;50104;52.002;4.688;2022-10-16T08:38:48;14.80;89.40
47546;DHT22;50104;52.002;4.688;2022-10-16T08:44:26;15.00;89.40
47546;DHT22;50104;52.002;4.688;2022-10-16T08:49:31;15.10;89.40
47546;DHT22;50104;52.002;4.688;2022-10-16T08:54:37;15.30;89.30
47546;DHT22;50104;52.002;4.688;2022-10-16T08:59:42;15.40;89.20
47546;DHT22;50104;52.002;4.688;2022-10-16T09:15:35;15.90;88.40
47546;DHT22;50104;52.002;4.688;2022-10-16T09:25:48;16.20;87.80
47546;DHT22;50104;52.002;4.688;2022-10-16T09:30:50;16.30;87.40
47546;DHT22;50104;52.002;4.688;2022-10-16T09:35:53;16.40;87.40
47546;DHT22;50104;52.002;4.688;2022-10-16T09:40:57;16.60;87.40
47546;DHT22;50104;52.002;4.688;2022-10-16T09:46:05;16.80;87.40
47546;DHT22;50104;52.002;4.688;2022-10-16T09:56:36;17.10;86.70
47546;DHT22;50104;52.002;4.688;2022-10-16T10:01:48;17.30;86.30
47546;DHT22;50104;52.002;4.688;2022-10-16T10:06:56;17.50;86.10
47546;DHT22;50104;52.002;4.688;2022-10-16T10:22:27;18.00;84.10
47546;DHT22;50104;52.002;4.688;2022-10-16T10:33:25;18.40;83.00
47546;DHT22;50104;52.002;4.688;2022-10-16T10:39:22;18.50;82.40
47546;DHT22;50104;52.002;4.688;2022-10-16T11:06:19;18.60;77.10
47546;DHT22;50104;52.002;4.688;2022-10-16T11:11:35;18.50;76.80
47546;DHT22;50104;52.002;4.688;2022-10-16T11:16:43;18.60;75.20
47546;DHT22;50104;52.002;4.688;2022-10-16T11:21:48;18.60;77.40
47546;DHT22;50104;52.002;4.688;2022-10-16T11:26:54;18.70;77.40
47546;DHT22;50104;52.002;4.688;2022-10-16T11:31:59;18.90;77.20
47546;DHT22;50104;52.002;4.688;2022-10-16T11:37:24;19.20;77.00
47546;DHT22;50104;52.002;4.688;2022-10-16T11:42:32;19.40;76.40
47546;DHT22;50104;52.002;4.688;2022-10-16T11:47:45;19.60;76.40
47546;DHT22;50104;52.002;4.688;2022-10-16T11:53:15;19.60;75.30
47546;DHT22;50104;52.002;4.688;2022-10-16T11:58:41;19.80;75.90
47546;DHT22;50104;52.002;4.688;2022-10-16T12:03:56;20.00;76.90
47546;DHT22;50104;52.002;4.688;2022-10-16T12:09:00;20.20;76.50
47546;DHT22;50104;52.002;4.688;2022-10-16T12:19:15;20.60;75.00
47546;DHT22;50104;52.002;4.688;2022-10-16T12:24:26;20.60;74.70
47546;DHT22;50104;52.002;4.688;2022-10-16T12:29:41;20.70;74.40
47546;DHT22;50104;52.002;4.688;2022-10-16T12:34:47;20.70;73.20
47546;DHT22;50104;52.002;4.688;2022-10-16T12:39:48;20.70;74.00
47546;DHT22;50104;52.002;4.688;2022-10-16T12:44:50;20.70;72.40
47546;DHT22;50104;52.002;4.688;2022-10-16T12:49:54;20.70;73.20
47546;DHT22;50104;52.002;4.688;2022-10-16T12:54:57;20.70;73.80
47546;DHT22;50104;52.002;4.688;2022-10-16T13:27:43;20.70;74.10
47546;DHT22;50104;52.002;4.688;2022-10-16T13:33:01;20.70;72.70
47546;DHT22;50104;52.002;4.688;2022-10-16T13:38:12;20.70;74.50
47546;DHT22;50104;52.002;4.688;2022-10-16T13:43:16;20.60;74.20
47546;DHT22;50104;52.002;4.688;2022-10-16T13:48:18;20.60;74.00
47546;DHT22;50104;52.002;4.688;2022-10-16T13:53:19;20.60;73.50
47546;DHT22;50104;52.002;4.688;2022-10-16T13:58:19;20.60;73.40
47546;DHT22;50104;52.002;4.688;2022-10-16T14:03:24;20.60;73.40
47546;DHT22;50104;52.002;4.688;2022-10-16T14:08:26;20.50;74.00
47546;DHT22;50104;52.002;4.688;2022-10-16T14:13:37;20.50;73.50
47546;DHT22;50104;52.002;4.688;2022-10-16T14:18:39;20.50;73.30
47546;DHT22;50104;52.002;4.688;2022-10-16T14:23:42;20.50;73.80
47546;DHT22;50104;52.002;4.688;2022-10-16T14:28:43;20.40;73.80
47546;DHT22;50104;52.002;4.688;2022-10-16T14:33:45;20.40;73.50
47546;DHT22;50104;52.002;4.688;2022-10-16T14:44:02;20.30;73.90
47546;DHT22;50104;52.002;4.688;2022-10-16T14:49:13;20.30;74.40
47546;DHT22;50104;52.002;4.688;2022-10-16T14:54:20;20.20;74.40
47546;DHT22;50104;52.002;4.688;2022-10-16T15:04:34;20.10;73.80
47546;DHT22;50104;52.002;4.688;2022-10-16T15:09:35;20.00;74.40
47546;DHT22;50104;52.002;4.688;2022-10-16T15:14:36;20.00;74.80
47546;DHT22;50104;52.002;4.688;2022-10-16T15:19:37;19.90;75.20
47546;DHT22;50104;52.002;4.688;2022-10-16T15:24:39;19.90;75.30
47546;DHT22;50104;52.002;4.688;2022-10-16T15:29:40;19.80;75.50
47546;DHT22;50104;52.002;4.688;2022-10-16T15:34:40;19.80;75.50
47546;DHT22;50104;52.002;4.688;2022-10-16T15:39:42;19.70;75.60
47546;DHT22;50104;52.002;4.688;2022-10-16T15:44:43;19.60;75.50
47546;DHT22;50104;52.002;4.688;2022-10-16T15:49:44;19.60;75.70
47546;DHT22;50104;52.002;4.688;2022-10-16T15:54:47;19.50;75.90
47546;DHT22;50104;52.002;4.688;2022-10-16T15:59:48;19.40;75.90
47546;DHT22;50104;52.002;4.688;2022-10-16T16:04:49;19.30;75.80
47546;DHT22;50104;52.002;4.688;2022-10-16T16:09:49;19.20;75.80
47546;DHT22;50104;52.002;4.688;2022-10-16T16:14:50;19.10;75.60
47546;DHT22;50104;52.002;4.688;2022-10-16T16:19:51;19.00;74.80
47546;DHT22;50104;52.002;4.688;2022-10-16T16:24:52;18.90;75.20
47546;DHT22;50104;52.002;4.688;2022-10-16T16:29:53;18.80;75.40
47546;DHT22;50104;52.002;4.688;2022-10-16T16:34:55;18.70;75.50
47546;DHT22;50104;52.002;4.688;2022-10-16T16:39:56;18.60;75.50
47546;DHT22;50104;52.002;4.688;2022-10-16T16:44:58;18.50;75.50
47546;DHT22;50104;52.002;4.688;2022-10-16T16:49:59;18.40;75.60
47546;DHT22;50104;52.002;4.688;2022-10-16T16:55:05;18.30;75.60
47546;DHT22;50104;52.002;4.688;2022-10-16T17:00:06;18.20;75.70
47546;DHT22;50104;52.002;4.688;2022-10-16T17:05:08;18.10;75.80
47546;DHT22;50104;52.002;4.688;2022-10-16T17:10:09;18.00;75.90
47546;DHT22;50104;52.002;4.688;2022-10-16T17:15:10;17.90;76.00
47546;DHT22;50104;52.002;4.688;2022-10-16T17:20:11;17.80;76.10
47546;DHT22;50104;52.002;4.688;2022-10-16T17:25:12;17.70;76.20
47546;DHT22;50104;52.002;4.688;2022-10-16T17:30:13;17.60;76.40
47546;DHT22;50104;52.002;4.688;2022-10-16T17:35:14;17.60;76.50
47546;DHT22;50104;52.002;4.688;2022-10-16T17:40:16;17.50;76.70
47546;DHT22;50104;52.002;4.688;2022-10-16T17:45:18;17.40;76.80
47546;DHT22;50104;52.002;4.688;2022-10-16T17:50:19;17.40;76.90
47546;DHT22;50104;52.002;4.688;2022-10-16T17:55:20;17.30;77.10
47546;DHT22;50104;52.002;4.688;2022-10-16T18:00:21;17.20;77.20
47546;DHT22;50104;52.002;4.688;2022-10-16T18:05:21;17.20;77.30
47546;DHT22;50104;52.002;4.688;2022-10-16T18:10:22;17.20;77.40
47546;DHT22;50104;52.002;4.688;2022-10-16T18:15:23;17.10;77.50
47546;DHT22;50104;52.002;4.688;2022-10-16T18:20:24;17.10;77.70
47546;DHT22;50104;52.002;4.688;2022-10-16T18:25:25;17.00;77.60
47546;DHT22;50104;52.002;4.688;2022-10-16T18:30:25;17.00;77.70
47546;DHT22;50104;52.002;4.688;2022-10-16T18:35:26;17.00;77.90
47546;DHT22;50104;52.002;4.688;2022-10-16T18:40:28;16.90;77.90
47546;DHT22;50104;52.002;4.688;2022-10-16T18:45:29;16.90;77.90
47546;DHT22;50104;52.002;4.688;2022-10-16T18:50:30;16.90;78.10
47546;DHT22;50104;52.002;4.688;2022-10-16T18:55:31;16.80;78.20
47546;DHT22;50104;52.002;4.688;2022-10-16T19:00:33;16.80;78.30
47546;DHT22;50104;52.002;4.688;2022-10-16T19:05:33;16.80;78.40
47546;DHT22;50104;52.002;4.688;2022-10-16T19:10:36;16.70;78.50
47546;DHT22;50104;52.002;4.688;2022-10-16T19:15:40;16.70;78.60
47546;DHT22;50104;52.002;4.688;2022-10-16T19:20:42;16.60;78.80
47546;DHT22;50104;52.002;4.688;2022-10-16T19:25:43;16.60;78.90
47546;DHT22;50104;52.002;4.688;2022-10-16T19:30:44;16.50;79.00
47546;DHT22;50104;52.002;4.688;2022-10-16T19:35:45;16.50;79.20
47546;DHT22;50104;52.002;4.688;2022-10-16T19:40:46;16.50;79.20
47546;DHT22;50104;52.002;4.688;2022-10-16T19:45:47;16.40;79.40
47546;DHT22;50104;52.002;4.688;2022-10-16T19:50:48;16.40;79.60
47546;DHT22;50104;52.002;4.688;2022-10-16T19:55:49;16.40;79.70
47546;DHT22;50104;52.002;4.688;2022-10-16T20:00:50;16.30;79.80
47546;DHT22;50104;52.002;4.688;2022-10-16T20:05:55;16.30;79.90
47546;DHT22;50104;52.002;4.688;2022-10-16T20:10:56;16.30;80.00
47546;DHT22;50104;52.002;4.688;2022-10-16T20:15:57;16.20;80.10
47546;DHT22;50104;52.002;4.688;2022-10-16T20:20:58;16.20;80.10
47546;DHT22;50104;52.002;4.688;2022-10-16T20:26:00;16.10;80.30
47546;DHT22;50104;52.002;4.688;2022-10-16T20:31:18;16.10;80.40
47546;DHT22;50104;52.002;4.688;2022-10-16T20:36:23;16.10;80.70
47546;DHT22;50104;52.002;4.688;2022-10-16T20:41:25;16.00;80.70
47546;DHT22;50104;52.002;4.688;2022-10-16T20:46:27;16.00;80.90
47546;DHT22;50104;52.002;4.688;2022-10-16T20:51:30;16.00;80.90
47546;DHT22;50104;52.002;4.688;2022-10-16T20:56:34;16.00;81.20
47546;DHT22;50104;52.002;4.688;2022-10-16T21:01:36;16.00;81.40
47546;DHT22;50104;52.002;4.688;2022-10-16T21:06:38;15.90;81.60
47546;DHT22;50104;52.002;4.688;2022-10-16T21:11:39;15.90;81.70
47546;DHT22;50104;52.002;4.688;2022-10-16T21:16:40;15.90;81.80
47546;DHT22;50104;52.002;4.688;2022-10-16T21:21:41;15.90;81.90
47546;DHT22;50104;52.002;4.688;2022-10-16T21:26:41;15.90;82.00
47546;DHT22;50104;52.002;4.688;2022-10-16T21:31:42;15.90;82.10
47546;DHT22;50104;52.002;4.688;2022-10-16T21:36:43;15.90;82.20
47546;DHT22;50104;52.002;4.688;2022-10-16T21:41:46;15.90;82.30
47546;DHT22;50104;52.002;4.688;2022-10-16T21:46:49;15.90;82.20
47546;DHT22;50104;52.002;4.688;2022-10-16T21:51:50;15.80;82.30
47546;DHT22;50104;52.002;4.688;2022-10-16T21:56:51;15.80;82.40
47546;DHT22;50104;52.002;4.688;2022-10-16T22:01:52;15.80;82.60
47546;DHT22;50104;52.002;4.688;2022-10-16T22:06:53;15.80;82.50
47546;DHT22;50104;52.002;4.688;2022-10-16T22:11:54;15.80;82.50
47546;DHT22;50104;52.002;4.688;2022-10-16T22:16:55;15.80;82.60
47546;DHT22;50104;52.002;4.688;2022-10-16T22:21:55;15.80;82.60
47546;DHT22;50104;52.002;4.688;2022-10-16T22:26:56;15.80;82.60
47546;DHT22;50104;52.002;4.688;2022-10-16T22:31:57;15.80;82.70
47546;DHT22;50104;52.002;4.688;2022-10-16T22:36:58;15.80;82.80
47546;DHT22;50104;52.002;4.688;2022-10-16T22:42:01;15.80;82.80
47546;DHT22;50104;52.002;4.688;2022-10-16T22:47:08;15.80;82.70
47546;DHT22;50104;52.002;4.688;2022-10-16T22:52:09;15.80;82.50
47546;DHT22;50104;52.002;4.688;2022-10-16T22:57:10;15.70;82.40
47546;DHT22;50104;52.002;4.688;2022-10-16T23:02:11;15.70;82.50
47546;DHT22;50104;52.002;4.688;2022-10-16T23:07:12;15.70;82.50
47546;DHT22;50104;52.002;4.688;2022-10-16T23:12:12;15.70;82.70
47546;DHT22;50104;52.002;4.688;2022-10-16T23:17:13;15.70;83.00
47546;DHT22;50104;52.002;4.688;2022-10-16T23:22:14;15.70;83.10
47546;DHT22;50104;52.002;4.688;2022-10-16T23:27:15;15.60;83.20
47546;DHT22;50104;52.002;4.688;2022-10-16T23:32:15;15.60;83.10
47546;DHT22;50104;52.002;4.688;2022-10-16T23:37:17;15.60;83.00
47546;DHT22;50104;52.002;4.688;2022-10-16T23:42:19;15.60;83.00
47546;DHT22;50104;52.002;4.688;2022-10-16T23:47:19;15.50;82.80
47546;DHT22;50104;52.002;4.688;2022-10-16T23:52:20;15.50;82.80
47546;DHT22;50104;52.002;4.688;2022-10-16T23:57:21;15.50;82.90
